createdAt,value
2022-09-09T00:02:09.720Z,24.55
2022-09-09T00:04:39.801Z,23.67
2022-09-09T00:07:14.495Z,22.98
2022-09-09T00:09:50.334Z,22.95
2022-09-09T00:12:23.389Z,24.48
2022-09-09T00:15:08.971Z,26.04
2022-09-09T00:17:42.543Z,26.74
2022-09-09T00:20:43.349Z,25.61
2022-09-09T00:23:25.865Z,24.34
2022-09-09T00:26:02.483Z,23.46
2022-09-09T00:28:35.490Z,22.76
2022-09-09T00:31:13.790Z,22.77
2022-09-09T00:33:44.310Z,24.32
2022-09-09T00:36:17.823Z,25.65
2022-09-09T00:38:50.381Z,26.08
2022-09-09T00:41:26.869Z,25.07
2022-09-09T00:44:04.414Z,24.00
2022-09-09T00:46:50.985Z,23.15
2022-09-09T00:49:36.962Z,22.43
2022-09-09T00:52:20.739Z,22.54
2022-09-09T00:55:04.270Z,24.22
2022-09-09T00:57:39.382Z,25.50
2022-09-09T01:00:22.360Z,25.98
2022-09-09T01:03:09.745Z,24.87
2022-09-09T01:05:58.718Z,23.75
2022-09-09T01:08:32.754Z,22.85
2022-09-09T01:11:01.286Z,22.19
2022-09-09T01:13:31.600Z,22.15
2022-09-09T01:16:06.965Z,23.83
2022-09-09T01:18:42.733Z,25.04
2022-09-09T01:21:38.780Z,24.20
2022-09-09T01:24:31.178Z,23.05
2022-09-09T01:27:07.553Z,22.18
2022-09-09T01:29:35.281Z,22.15
2022-09-09T01:32:24.480Z,23.78
2022-09-09T01:34:53.199Z,24.69
2022-09-09T01:37:20.876Z,23.81
2022-09-09T01:39:48.763Z,22.87
2022-09-09T01:42:17.788Z,22.11
2022-09-09T01:44:45.476Z,21.47
2022-09-09T01:47:13.274Z,21.53
2022-09-09T01:49:41.237Z,23.30
2022-09-09T01:52:09.976Z,24.41
2022-09-09T01:54:38.099Z,23.69
2022-09-09T01:57:21.516Z,22.71
2022-09-09T02:00:10.667Z,21.85
2022-09-09T02:03:06.191Z,21.86
2022-09-09T02:05:37.837Z,23.82
2022-09-09T02:08:43.409Z,24.57
2022-09-09T02:11:23.970Z,23.44
2022-09-09T02:13:59.121Z,22.44
2022-09-09T02:16:33.281Z,21.67
2022-09-09T02:19:24.973Z,21.58
2022-09-09T02:21:56.263Z,23.45
2022-09-09T02:24:27.319Z,24.44
2022-09-09T02:26:58.536Z,23.63
2022-09-09T02:29:31.574Z,22.61
2022-09-09T02:32:05.140Z,21.79
2022-09-09T02:34:38.268Z,21.13
2022-09-09T02:37:09.251Z,21.18
2022-09-09T02:39:37.605Z,22.96
2022-09-09T02:42:06.388Z,24.18
2022-09-09T02:44:34.340Z,23.45
2022-09-09T02:47:13.962Z,22.44
2022-09-09T02:49:51.603Z,21.56
2022-09-09T02:52:32.024Z,20.87
2022-09-09T02:55:11.006Z,20.98
2022-09-09T02:57:40.134Z,22.86
2022-09-09T03:00:08.742Z,23.83
2022-09-09T03:02:36.529Z,23.01
2022-09-09T03:05:06.114Z,22.04
2022-09-09T03:07:34.492Z,21.24
2022-09-09T03:10:02.573Z,20.59
2022-09-09T03:12:30.449Z,20.59
2022-09-09T03:14:58.275Z,22.24
2022-09-09T03:17:26.885Z,23.39
2022-09-09T03:19:56.117Z,22.70
2022-09-09T03:22:23.871Z,21.72
2022-09-09T03:24:51.761Z,20.94
2022-09-09T03:27:20.629Z,20.32
2022-09-09T03:29:51.130Z,20.37
2022-09-09T03:32:20.033Z,22.07
2022-09-09T03:34:48.522Z,23.55
2022-09-09T03:37:18.831Z,24.06
2022-09-09T03:39:46.895Z,23.09
2022-09-09T03:42:15.893Z,22.06
2022-09-09T03:44:44.388Z,21.23
2022-09-09T03:47:12.164Z,20.54
2022-09-09T03:49:39.964Z,19.97
2022-09-09T03:52:09.208Z,20.03
2022-09-09T03:54:37.100Z,21.80
2022-09-09T03:57:05.882Z,23.52
2022-09-09T03:59:33.550Z,24.17
2022-09-09T04:02:01.747Z,23.17
2022-09-09T04:04:29.466Z,22.09
2022-09-09T04:06:57.467Z,21.23
2022-09-09T04:09:25.395Z,20.53
2022-09-09T04:11:54.200Z,19.92
2022-09-09T04:14:23.099Z,19.92
2022-09-09T04:16:50.864Z,21.62
2022-09-09T04:19:18.694Z,22.80
2022-09-09T04:21:46.566Z,22.15
2022-09-09T04:24:14.256Z,21.18
2022-09-09T04:26:42.747Z,20.41
2022-09-09T04:29:10.832Z,19.77
2022-09-09T04:31:43.061Z,19.94
2022-09-09T04:34:11.267Z,21.99
2022-09-09T04:36:41.375Z,23.24
2022-09-09T04:39:09.163Z,22.46
2022-09-09T04:41:36.898Z,21.44
2022-09-09T04:44:04.760Z,20.63
2022-09-09T04:46:32.466Z,19.98
2022-09-09T04:49:00.189Z,20.03
2022-09-09T04:51:28.094Z,21.81
2022-09-09T04:53:55.921Z,23.09
2022-09-09T04:56:23.892Z,22.40
2022-09-09T04:58:51.674Z,21.44
2022-09-09T05:01:23.113Z,20.70
2022-09-09T05:03:53.156Z,20.10
2022-09-09T05:06:23.112Z,20.24
2022-09-09T05:08:51.621Z,22.12
2022-09-09T05:11:28.413Z,23.38
2022-09-09T05:13:57.570Z,22.72
2022-09-09T05:16:25.804Z,21.89
2022-09-09T05:18:53.585Z,21.21
2022-09-09T05:21:24.109Z,20.69
2022-09-09T05:23:54.664Z,20.80
2022-09-09T05:26:23.822Z,22.52
2022-09-09T05:28:51.564Z,23.67
2022-09-09T05:31:20.498Z,23.01
2022-09-09T05:33:50.523Z,22.15
2022-09-09T05:36:21.264Z,21.46
2022-09-09T05:38:50.925Z,21.33
2022-09-09T05:41:18.955Z,22.84
2022-09-09T05:43:50.600Z,24.35
2022-09-09T05:46:21.603Z,24.90
2022-09-09T05:48:52.082Z,24.02
2022-09-09T05:51:25.640Z,23.13
2022-09-09T05:53:56.287Z,22.41
2022-09-09T05:56:26.798Z,21.84
2022-09-09T05:58:55.910Z,21.96
2022-09-09T06:01:25.240Z,23.67
2022-09-09T06:03:54.072Z,24.87
2022-09-09T06:06:26.469Z,24.26
2022-09-09T06:08:59.172Z,23.37
2022-09-09T06:11:33.281Z,22.67
2022-09-09T06:14:01.572Z,22.24
2022-09-09T06:16:31.054Z,22.45
2022-09-09T06:18:59.374Z,24.12
2022-09-09T06:21:41.832Z,25.28
2022-09-09T06:24:09.885Z,24.61
2022-09-09T06:26:42.750Z,23.78
2022-09-09T06:29:11.203Z,23.11
2022-09-09T06:31:39.422Z,22.58
2022-09-09T06:34:08.986Z,22.56
2022-09-09T06:36:39.121Z,24.14
2022-09-09T06:39:14.191Z,25.83
2022-09-09T06:41:43.835Z,26.40
2022-09-09T06:44:12.990Z,25.77
2022-09-09T06:46:41.280Z,25.54
2022-09-09T06:49:10.213Z,25.63
2022-09-09T06:51:44.126Z,25.86
2022-09-09T06:54:13.278Z,26.19
2022-09-09T06:56:44.047Z,26.60
2022-09-09T06:59:13.289Z,27.00
2022-09-09T07:01:44.854Z,27.41
2022-09-09T07:04:13.669Z,27.86
2022-09-09T07:06:44.488Z,28.25
2022-09-09T07:09:14.333Z,28.56
2022-09-09T07:11:52.617Z,28.82
2022-09-09T07:14:20.741Z,29.05
2022-09-09T07:16:48.631Z,29.23
2022-09-09T07:19:16.653Z,29.11
2022-09-09T07:21:45.055Z,28.54
2022-09-09T07:24:13.821Z,27.83
2022-09-09T07:26:42.223Z,27.17
2022-09-09T07:29:10.063Z,26.56
2022-09-09T07:31:40.852Z,26.00
2022-09-09T07:34:08.857Z,25.49
2022-09-09T07:36:39.590Z,25.01
2022-09-09T07:39:10.280Z,24.57
2022-09-09T07:41:41.059Z,24.16
2022-09-09T07:44:18.165Z,23.80
2022-09-09T07:46:46.752Z,23.45
2022-09-09T07:49:16.226Z,23.70
2022-09-09T07:51:46.909Z,25.47
2022-09-09T07:54:18.360Z,26.69
2022-09-09T07:56:46.108Z,26.14
2022-09-09T07:59:14.706Z,25.37
2022-09-09T08:01:51.313Z,24.77
2022-09-09T08:04:20.770Z,24.29
2022-09-09T08:06:49.907Z,23.92
2022-09-09T08:09:18.328Z,23.60
2022-09-09T08:11:46.336Z,23.86
2022-09-09T08:14:14.440Z,25.58
2022-09-09T08:16:46.091Z,26.77
2022-09-09T08:19:16.866Z,26.27
2022-09-09T08:21:45.893Z,25.52
2022-09-09T08:24:17.631Z,24.94
2022-09-09T08:26:49.489Z,24.48
2022-09-09T08:29:18.695Z,24.11
2022-09-09T08:31:52.296Z,23.79
2022-09-09T08:34:21.205Z,23.50
2022-09-09T08:36:50.916Z,23.62
2022-09-09T08:39:21.569Z,25.22
2022-09-09T08:42:15.136Z,26.35
2022-09-09T08:45:04.255Z,25.78
2022-09-09T08:48:08.095Z,25.06
2022-09-09T08:50:39.622Z,24.49
2022-09-09T08:53:34.286Z,24.13
2022-09-09T08:56:10.270Z,23.76
2022-09-09T08:58:50.286Z,23.49
2022-09-09T09:01:42.953Z,23.24
2022-09-09T09:04:20.640Z,23.63
2022-09-09T09:07:16.364Z,25.57
2022-09-09T09:10:02.384Z,26.65
2022-09-09T09:12:38.037Z,25.98
2022-09-09T09:15:18.121Z,25.36
2022-09-09T09:17:46.371Z,24.90
2022-09-09T09:20:16.352Z,24.57
2022-09-09T09:22:52.989Z,24.29
2022-09-09T09:25:32.811Z,24.04
2022-09-09T09:28:24.426Z,23.82
2022-09-09T09:31:05.116Z,23.61
2022-09-09T09:33:35.763Z,23.45
2022-09-09T09:36:04.389Z,23.30
2022-09-09T09:41:43.993Z,25.61
2022-09-09T09:44:33.608Z,26.77
2022-09-09T09:47:11.968Z,26.16
2022-09-09T09:49:40.780Z,25.56
2022-09-09T09:52:19.172Z,25.13
2022-09-09T09:54:46.848Z,24.79
2022-09-09T09:57:17.608Z,24.55
2022-09-09T09:59:46.768Z,24.31
2022-09-09T10:02:15.781Z,24.11
2022-09-09T10:04:44.154Z,23.93
2022-09-09T10:07:23.377Z,23.77
2022-09-09T10:09:55.972Z,23.62
2022-09-09T10:12:32.960Z,23.50
2022-09-09T10:15:23.278Z,23.39
2022-09-09T10:18:46.142Z,23.27
2022-09-09T10:21:39.001Z,24.26
2022-09-09T10:24:31.476Z,26.60
2022-09-09T10:26:59.369Z,27.61
2022-09-09T10:29:53.496Z,27.02
2022-09-09T10:32:41.473Z,26.33
2022-09-09T10:35:37.832Z,25.84
2022-09-09T10:38:14.806Z,25.47
2022-09-09T10:40:52.433Z,25.20
2022-09-09T10:43:26.032Z,24.98
2022-09-09T10:46:08.899Z,24.79
2022-09-09T10:48:39.434Z,24.59
2022-09-09T10:51:07.340Z,24.43
2022-09-09T10:53:54.069Z,24.31
2022-09-09T10:56:25.001Z,24.19
2022-09-09T10:59:34.712Z,24.11
2022-09-09T11:02:18.570Z,24.02
2022-09-09T11:04:54.817Z,23.92
2022-09-09T11:07:48.891Z,23.80
2022-09-09T11:10:38.019Z,23.68
2022-09-09T11:13:16.899Z,23.58
2022-09-09T11:15:52.190Z,23.50
2022-09-09T11:18:24.512Z,23.47
2022-09-09T11:21:02.143Z,23.44
2022-09-09T11:23:41.801Z,23.36
2022-09-09T11:26:18.017Z,23.26
2022-09-09T11:29:18.814Z,23.14
2022-09-09T11:31:56.957Z,23.02
2022-09-09T11:34:37.445Z,22.96
2022-09-09T11:37:27.440Z,22.95
2022-09-09T11:40:25.007Z,22.96
2022-09-09T11:43:25.135Z,23.00
2022-09-09T11:46:00.175Z,23.04
2022-09-09T11:48:29.743Z,23.06
2022-09-09T11:51:02.248Z,23.09
2022-09-09T11:53:30.349Z,23.10
2022-09-09T11:56:34.859Z,23.11
2022-09-09T11:59:06.506Z,23.11
2022-09-09T12:01:34.085Z,23.11
2022-09-09T12:04:22.355Z,23.12
2022-09-09T12:06:54.521Z,23.16
2022-09-09T12:09:43.791Z,23.21
2022-09-09T12:12:14.574Z,23.25
2022-09-09T12:14:42.862Z,23.25
2022-09-09T12:17:40.912Z,23.24
2022-09-09T12:20:16.624Z,23.20
2022-09-09T12:23:11.574Z,23.16
2022-09-09T12:26:21.548Z,23.10
2022-09-09T12:29:10.772Z,23.08
2022-09-09T12:31:52.895Z,23.06
2022-09-09T12:34:39.047Z,23.07
2022-09-09T12:37:24.351Z,23.06
2022-09-09T12:40:01.006Z,23.06
2022-09-09T12:42:29.512Z,23.08
2022-09-09T12:45:01.170Z,23.09
2022-09-09T12:47:44.843Z,23.12
2022-09-09T12:50:38.613Z,23.13
2022-09-09T12:53:16.797Z,23.11
2022-09-09T12:56:11.493Z,23.06
2022-09-09T12:58:41.003Z,23.03
2022-09-09T13:01:23.664Z,23.04
2022-09-09T13:03:52.007Z,23.06
2022-09-09T13:06:39.945Z,23.10
2022-09-09T13:09:11.158Z,23.15
2022-09-09T13:11:40.933Z,23.18
2022-09-09T13:14:30.031Z,23.15
2022-09-09T13:17:00.708Z,23.12
2022-09-09T13:19:32.739Z,23.11
2022-09-09T13:22:00.499Z,23.12
2022-09-09T13:24:35.883Z,23.14
2022-09-09T13:27:32.607Z,23.13
2022-09-09T13:30:00.902Z,23.09
2022-09-09T13:32:29.666Z,23.03
2022-09-09T13:35:00.184Z,22.99
2022-09-09T13:37:39.537Z,22.94
2022-09-09T13:40:18.788Z,22.90
2022-09-09T13:42:46.777Z,22.87
2022-09-09T13:45:24.158Z,22.84
2022-09-09T13:47:53.728Z,22.82
2022-09-09T13:50:25.380Z,22.83
2022-09-09T13:53:00.382Z,22.87
2022-09-09T13:55:30.576Z,22.92
2022-09-09T13:58:01.698Z,22.98
2022-09-09T14:00:35.130Z,23.03
2022-09-09T14:03:03.227Z,23.08
2022-09-09T14:05:33.988Z,23.12
2022-09-09T14:08:04.261Z,23.13
2022-09-09T14:10:32.299Z,23.15
2022-09-09T14:13:00.025Z,23.15
2022-09-09T14:15:28.156Z,23.17
2022-09-09T14:17:56.104Z,23.18
2022-09-09T14:20:23.806Z,23.20
2022-09-09T14:22:51.556Z,23.18
2022-09-09T14:25:19.301Z,23.16
2022-09-09T14:27:47.107Z,23.15
2022-09-09T14:30:14.899Z,23.11
2022-09-09T14:32:42.760Z,23.07
2022-09-09T14:35:10.487Z,23.03
2022-09-09T14:37:40.210Z,23.00
2022-09-09T14:40:08.626Z,22.97
2022-09-09T14:42:36.367Z,22.97
2022-09-09T14:45:04.794Z,22.97
2022-09-09T14:47:33.318Z,22.99
2022-09-09T14:50:02.076Z,23.01
2022-09-09T14:52:31.312Z,23.02
2022-09-09T14:54:59.071Z,23.03
2022-09-09T14:57:26.793Z,23.03
2022-09-09T14:59:54.595Z,23.00
2022-09-09T15:02:22.460Z,22.98
2022-09-09T15:04:51.026Z,22.96
2022-09-09T15:07:20.559Z,22.96
2022-09-09T15:09:49.516Z,22.94
2022-09-09T15:12:19.864Z,22.92
2022-09-09T15:14:48.112Z,22.89
2022-09-09T15:17:15.904Z,22.85
2022-09-09T15:19:43.707Z,22.81
2022-09-09T15:22:11.555Z,22.76
2022-09-09T15:24:39.401Z,22.72
2022-09-09T15:27:07.160Z,22.68
2022-09-09T15:29:34.969Z,22.63
2022-09-09T15:32:03.095Z,22.58
2022-09-09T15:34:30.978Z,22.54
2022-09-09T15:37:01.050Z,22.48
2022-09-09T15:39:29.003Z,22.43
2022-09-09T15:41:57.742Z,22.38
2022-09-09T15:44:26.572Z,22.34
2022-09-09T15:46:57.568Z,22.29
2022-09-09T15:49:27.133Z,22.25
2022-09-09T15:51:58.440Z,22.21
2022-09-09T15:54:27.290Z,22.18
2022-09-09T15:56:57.329Z,22.15
2022-09-09T15:59:28.836Z,22.11
2022-09-09T16:01:57.680Z,22.09
2022-09-09T16:04:26.066Z,22.05
2022-09-09T16:07:03.058Z,22.02
2022-09-09T16:09:32.385Z,21.99
2022-09-09T16:12:07.489Z,21.96
2022-09-09T16:14:36.829Z,21.93
2022-09-09T16:17:06.395Z,22.33
2022-09-09T16:19:35.646Z,24.24
2022-09-09T16:22:05.107Z,25.55
2022-09-09T16:24:33.666Z,25.19
2022-09-09T16:27:01.459Z,24.64
2022-09-09T16:29:29.630Z,24.23
2022-09-09T16:32:02.726Z,23.92
2022-09-09T16:34:31.735Z,23.65
2022-09-09T16:36:59.465Z,23.45
2022-09-09T16:39:27.327Z,23.25
2022-09-09T16:41:55.198Z,23.06
2022-09-09T16:44:23.398Z,22.90
2022-09-09T16:46:58.146Z,22.75
2022-09-09T16:49:29.324Z,22.61
2022-09-09T16:51:59.776Z,22.47
2022-09-09T16:54:28.270Z,22.35
2022-09-09T16:56:56.297Z,22.24
2022-09-09T16:59:24.536Z,22.13
2022-09-09T17:01:53.325Z,22.03
2022-09-09T17:04:25.265Z,22.43
2022-09-09T17:06:54.974Z,24.29
2022-09-09T17:09:23.847Z,25.54
2022-09-09T17:11:53.236Z,25.12
2022-09-09T17:14:22.864Z,24.51
2022-09-09T17:16:50.844Z,24.04
2022-09-09T17:19:19.000Z,23.69
2022-09-09T17:24:39.599Z,23.09
2022-09-09T17:27:08.524Z,22.85
2022-09-09T17:29:37.006Z,22.64
2022-09-09T17:32:07.041Z,22.46
2022-09-09T17:34:35.916Z,22.26
2022-09-09T17:37:05.230Z,22.11
2022-09-09T17:39:34.047Z,22.42
2022-09-09T17:42:02.442Z,24.08
2022-09-09T17:44:33.328Z,25.23
2022-09-09T17:47:01.937Z,24.82
2022-09-09T17:49:29.676Z,24.20
2022-09-09T17:51:57.668Z,23.71
2022-09-09T17:54:25.739Z,23.34
2022-09-09T17:56:53.587Z,23.02
2022-09-09T17:59:21.369Z,22.75
2022-09-09T18:01:50.907Z,22.51
2022-09-09T18:04:20.475Z,22.28
2022-09-09T18:06:51.144Z,22.64
2022-09-09T18:09:23.395Z,24.71
2022-09-09T18:11:54.636Z,26.20
2022-09-09T18:14:26.363Z,25.63
2022-09-09T18:16:54.545Z,24.82
2022-09-09T18:19:25.553Z,24.20
2022-09-09T18:21:54.692Z,23.71
2022-09-09T18:24:23.522Z,23.29
2022-09-09T18:26:51.477Z,22.93
2022-09-09T18:29:23.615Z,22.61
2022-09-09T18:31:53.324Z,22.85
2022-09-09T18:34:22.878Z,24.60
2022-09-09T18:36:55.175Z,25.75
2022-09-09T18:39:27.573Z,25.17
2022-09-09T18:42:02.338Z,24.40
2022-09-09T18:44:33.394Z,23.78
2022-09-09T18:47:03.560Z,23.30
2022-09-09T18:49:33.477Z,22.88
2022-09-09T18:52:02.917Z,22.51
2022-09-09T18:54:33.399Z,22.81
2022-09-09T18:57:01.396Z,24.85
2022-09-09T18:59:30.247Z,26.20
2022-09-09T19:01:58.490Z,25.57
2022-09-09T19:04:27.679Z,24.69
2022-09-09T19:06:59.139Z,24.01
2022-09-09T19:09:31.187Z,23.45
2022-09-09T19:12:00.832Z,22.98
2022-09-09T19:14:30.245Z,22.57
2022-09-09T19:16:58.946Z,22.77
2022-09-09T19:19:30.579Z,24.67
2022-09-09T19:21:59.425Z,26.02
2022-09-09T19:24:30.383Z,25.34
2022-09-09T19:27:01.953Z,24.42
2022-09-09T19:29:33.158Z,23.69
2022-09-09T19:32:42.685Z,23.12
2022-09-09T19:34:51.998Z,22.58
2022-09-09T19:37:20.508Z,22.72
2022-09-09T19:39:49.830Z,24.55
2022-09-09T19:42:17.818Z,25.84
2022-09-09T19:44:46.496Z,25.18
2022-09-09T19:47:15.197Z,24.30
2022-09-09T19:49:46.992Z,23.60
2022-09-09T19:52:17.145Z,23.02
2022-09-09T19:54:46.873Z,22.55
2022-09-09T19:57:15.574Z,22.68
2022-09-09T19:59:43.331Z,24.68
2022-09-09T20:02:15.837Z,26.05
2022-09-09T20:04:44.581Z,25.33
2022-09-09T20:07:14.849Z,24.38
2022-09-09T20:09:42.588Z,23.64
2022-09-09T20:12:10.595Z,23.06
2022-09-09T20:14:39.883Z,22.57
2022-09-09T20:17:08.359Z,22.13
2022-09-09T20:19:36.136Z,22.39
2022-09-09T20:22:04.468Z,24.43
2022-09-09T20:24:32.347Z,25.81
2022-09-09T20:27:00.123Z,25.11
2022-09-09T20:29:27.930Z,24.19
2022-09-09T20:31:55.629Z,23.47
2022-09-09T20:34:25.802Z,22.89
2022-09-09T20:36:54.805Z,22.40
2022-09-09T20:39:22.665Z,22.54
2022-09-09T20:41:50.812Z,24.49
2022-09-09T20:44:22.910Z,25.86
2022-09-09T20:46:55.234Z,25.16
2022-09-09T20:49:24.370Z,24.21
2022-09-09T20:51:53.787Z,23.48
2022-09-09T20:54:26.916Z,22.89
2022-09-09T20:56:58.087Z,22.39
2022-09-09T20:59:31.281Z,22.58
2022-09-09T21:02:00.919Z,24.56
2022-09-09T21:04:29.470Z,25.77
2022-09-09T21:06:57.463Z,25.07
2022-09-09T21:09:25.294Z,24.17
2022-09-09T21:11:53.833Z,23.46
2022-09-09T21:14:22.512Z,22.88
2022-09-09T21:16:50.505Z,22.39
2022-09-09T21:19:18.711Z,22.48
2022-09-09T21:21:47.967Z,24.21
2022-09-09T21:24:16.837Z,25.39
2022-09-09T21:26:44.767Z,24.75
2022-09-09T21:29:13.199Z,23.90
2022-09-09T21:31:43.505Z,23.21
2022-09-09T21:34:13.326Z,22.66
2022-09-09T21:36:41.194Z,22.18
2022-09-09T21:39:09.038Z,22.36
2022-09-09T21:41:37.002Z,24.01
2022-09-09T21:44:04.777Z,25.03
2022-09-09T21:46:32.632Z,24.48
2022-09-09T21:49:03.462Z,23.65
2022-09-09T21:51:31.249Z,22.97
2022-09-09T21:53:59.537Z,22.42
2022-09-09T21:56:27.366Z,22.47
2022-09-09T21:58:57.691Z,24.27
2022-09-09T22:01:26.407Z,25.67
2022-09-09T22:03:55.037Z,24.99
2022-09-09T22:06:22.764Z,24.07
2022-09-09T22:08:51.069Z,23.34
2022-09-09T22:11:22.784Z,22.76
2022-09-09T22:13:51.121Z,22.27
2022-09-09T22:16:21.806Z,21.86
2022-09-09T22:18:56.826Z,22.05
2022-09-09T22:21:27.140Z,24.04
2022-09-09T22:23:57.889Z,25.39
2022-09-09T22:26:27.991Z,24.74
2022-09-09T22:28:57.425Z,23.86
2022-09-09T22:31:26.770Z,23.17
2022-09-09T22:33:54.766Z,22.63
2022-09-09T22:36:23.263Z,22.17
2022-09-09T22:38:51.481Z,21.78
2022-09-09T22:41:20.017Z,21.42
2022-09-09T22:43:48.632Z,21.10
2022-09-09T22:46:17.234Z,21.37
2022-09-09T22:48:44.951Z,23.14
2022-09-09T22:51:14.693Z,24.71
2022-09-09T22:53:44.783Z,25.66
2022-09-09T22:56:17.337Z,24.88
2022-09-09T22:58:46.846Z,23.95
2022-09-09T23:01:21.182Z,23.23
2022-09-09T23:03:50.548Z,22.64
2022-09-09T23:06:22.489Z,22.18
2022-09-09T23:09:02.238Z,21.75
2022-09-09T23:11:33.723Z,22.10
2022-09-09T23:14:03.185Z,24.23
2022-09-09T23:16:35.441Z,25.57
2022-09-09T23:19:03.726Z,24.82
2022-09-09T23:21:32.385Z,23.91
2022-09-09T23:24:00.712Z,23.19
2022-09-09T23:26:29.906Z,22.62
2022-09-09T23:28:59.841Z,22.14
2022-09-09T23:31:30.627Z,21.71
2022-09-09T23:34:02.786Z,21.88
2022-09-09T23:36:31.239Z,23.89
2022-09-09T23:39:02.132Z,25.24
2022-09-09T23:41:31.977Z,24.55
2022-09-09T23:44:00.908Z,23.64
2022-09-09T23:46:30.861Z,22.92
2022-09-09T23:48:59.982Z,22.35
2022-09-09T23:51:30.361Z,21.89
2022-09-09T23:54:01.968Z,22.01
2022-09-09T23:56:32.981Z,23.94
2022-09-09T23:59:01.237Z,25.19
